createdAt,value
2022-10-12T00:01:54.839Z,96064.03
2022-10-12T00:04:22.563Z,96062.66
2022-10-12T00:06:50.182Z,96062.91
2022-10-12T00:09:17.855Z,96068.31
2022-10-12T00:11:45.482Z,96060.94
2022-10-12T00:14:14.592Z,96058.19
2022-10-12T00:16:42.201Z,96056.81
2022-10-12T00:19:14.196Z,96058.69
2022-10-12T00:21:41.854Z,96053.75
2022-10-12T00:24:10.884Z,96051.00
2022-10-12T00:26:38.554Z,96054.22
2022-10-12T00:29:06.250Z,96051.13
2022-10-12T00:31:35.327Z,96056.03
2022-10-12T00:34:04.773Z,96051.63
2022-10-12T00:36:35.664Z,96046.69
2022-10-12T00:39:06.583Z,96047.19
2022-10-12T00:41:38.338Z,96049.59
2022-10-12T00:44:36.388Z,96049.00
2022-10-12T00:47:10.044Z,96046.00
2022-10-12T00:49:38.207Z,96044.66
2022-10-12T00:52:10.862Z,96050.63
2022-10-12T00:54:42.808Z,96055.81
2022-10-12T00:57:12.626Z,96045.16
2022-10-12T00:59:45.372Z,96051.97
2022-10-12T01:02:15.192Z,96047.09
2022-10-12T01:04:43.515Z,96045.19
2022-10-12T01:07:11.573Z,96056.91
2022-10-12T01:09:39.255Z,96045.19
2022-10-12T01:12:09.230Z,96044.66
2022-10-12T01:14:37.151Z,96051.44
2022-10-12T01:17:14.725Z,96056.88
2022-10-12T01:20:23.034Z,96046.00
2022-10-12T01:23:05.367Z,96047.34
2022-10-12T01:25:43.186Z,96042.91
2022-10-12T01:28:20.314Z,96051.41
2022-10-12T01:30:58.225Z,96040.25
2022-10-12T01:33:33.787Z,96044.84
2022-10-12T01:36:06.359Z,96044.91
2022-10-12T01:38:42.615Z,96039.75
2022-10-12T01:41:17.110Z,96040.25
2022-10-12T01:43:46.739Z,96053.38
2022-10-12T01:46:47.346Z,96047.94
2022-10-12T01:49:18.097Z,96050.63
2022-10-12T01:51:59.497Z,96049.81
2022-10-12T01:54:35.690Z,96051.75
2022-10-12T01:57:09.212Z,96044.09
2022-10-12T01:59:48.047Z,96047.63
2022-10-12T02:02:27.082Z,96051.44
2022-10-12T02:05:03.725Z,96044.63
2022-10-12T02:07:42.280Z,96043.28
2022-10-12T02:10:16.675Z,96046.56
2022-10-12T02:12:46.872Z,96045.47
2022-10-12T02:15:16.503Z,96041.94
2022-10-12T02:17:49.026Z,96035.38
2022-10-12T02:20:19.342Z,96037.00
2022-10-12T02:22:49.803Z,96036.44
2022-10-12T02:25:21.666Z,96036.19
2022-10-12T02:27:53.598Z,96032.38
2022-10-12T02:30:21.489Z,96037.59
2022-10-12T02:32:55.368Z,96034.28
2022-10-12T02:35:28.942Z,96037.00
2022-10-12T02:38:02.362Z,96035.38
2022-10-12T02:40:35.628Z,96031.84
2022-10-12T02:43:11.142Z,96034.63
2022-10-12T02:45:42.532Z,96027.81
2022-10-12T02:48:14.819Z,96034.97
2022-10-12T02:50:42.897Z,96024.34
2022-10-12T02:53:12.612Z,96023.59
2022-10-12T02:55:48.858Z,96021.94
2022-10-12T02:58:17.127Z,96021.66
2022-10-12T03:00:44.772Z,96028.50
2022-10-12T03:03:14.152Z,96022.25
2022-10-12T03:05:41.799Z,96017.88
2022-10-12T03:08:09.441Z,96009.19
2022-10-12T03:10:37.084Z,96021.47
2022-10-12T03:13:05.161Z,96028.59
2022-10-12T03:15:32.794Z,96023.16
2022-10-12T03:18:00.697Z,96024.53
2022-10-12T03:20:29.721Z,96024.53
2022-10-12T03:22:57.421Z,96022.09
2022-10-12T03:25:25.185Z,96023.19
2022-10-12T03:27:52.848Z,96019.09
2022-10-12T03:30:20.559Z,96018.81
2022-10-12T03:32:48.429Z,96020.69
2022-10-12T03:35:17.634Z,96024.44
2022-10-12T03:37:46.660Z,96024.72
2022-10-12T03:40:14.413Z,96026.91
2022-10-12T03:42:42.030Z,96022.59
2022-10-12T03:45:10.383Z,96020.97
2022-10-12T03:47:38.516Z,96026.91
2022-10-12T03:50:07.202Z,96022.59
2022-10-12T03:52:35.038Z,96024.19
2022-10-12T03:55:04.143Z,96022.00
2022-10-12T03:57:31.784Z,96027.97
2022-10-12T03:59:59.471Z,96032.88
2022-10-12T04:02:27.127Z,96035.03
2022-10-12T04:04:54.900Z,96030.13
2022-10-12T04:07:22.568Z,96035.56
2022-10-12T04:09:50.628Z,96032.00
2022-10-12T04:12:19.631Z,96033.09
2022-10-12T04:14:47.292Z,96042.91
2022-10-12T04:17:16.175Z,96028.47
2022-10-12T04:19:44.123Z,96033.34
2022-10-12T04:22:12.152Z,96033.34
2022-10-12T04:24:39.849Z,96037.16
2022-10-12T04:27:07.558Z,96039.88
2022-10-12T04:29:37.141Z,96034.69
2022-10-12T04:32:08.779Z,96042.84
2022-10-12T04:34:39.219Z,96039.78
2022-10-12T04:37:06.970Z,96041.13
2022-10-12T04:39:34.647Z,96037.34
2022-10-12T04:42:02.354Z,96035.78
2022-10-12T04:44:32.379Z,96042.03
2022-10-12T04:47:01.609Z,96040.41
2022-10-12T04:49:29.483Z,96051.59
2022-10-12T04:51:57.096Z,96039.31
2022-10-12T04:54:24.801Z,96040.16
2022-10-12T04:56:52.404Z,96042.09
2022-10-12T04:59:20.136Z,96048.09
2022-10-12T05:01:47.803Z,96043.22
2022-10-12T05:04:16.882Z,96044.31
2022-10-12T05:06:44.546Z,96044.56
2022-10-12T05:09:14.592Z,96032.56
2022-10-12T05:11:44.613Z,96039.94
2022-10-12T05:14:12.456Z,96044.28
2022-10-12T05:16:40.151Z,96044.28
2022-10-12T05:19:07.845Z,96035.81
2022-10-12T05:21:37.089Z,96043.44
2022-10-12T05:24:05.111Z,96047.44
2022-10-12T05:26:32.769Z,96046.03
2022-10-12T05:29:00.528Z,96050.44
2022-10-12T05:31:28.243Z,96043.97
2022-10-12T05:33:55.871Z,96039.53
2022-10-12T05:36:23.529Z,96044.16
2022-10-12T05:38:52.667Z,96042.53
2022-10-12T05:41:20.344Z,96043.34
2022-10-12T05:43:48.032Z,96044.53
2022-10-12T05:46:15.681Z,96050.78
2022-10-12T05:48:43.385Z,96053.22
2022-10-12T05:51:11.117Z,96047.25
2022-10-12T05:53:38.833Z,96050.53
2022-10-12T05:56:08.219Z,96051.34
2022-10-12T05:58:35.927Z,96061.69
2022-10-12T06:01:07.901Z,96064.41
2022-10-12T06:03:35.918Z,96066.03
2022-10-12T06:06:04.523Z,96063.59
2022-10-12T06:08:32.707Z,96063.84
2022-10-12T06:11:00.553Z,96068.41
2022-10-12T06:13:29.628Z,96068.63
2022-10-12T06:15:58.085Z,96067.56
2022-10-12T06:18:25.853Z,96073.00
2022-10-12T06:21:21.023Z,96072.72
2022-10-12T06:23:43.081Z,96072.16
2022-10-12T06:26:10.726Z,96072.16
2022-10-12T06:28:39.794Z,96075.63
2022-10-12T06:31:07.549Z,96073.38
2022-10-12T06:33:35.239Z,96069.81
2022-10-12T06:36:03.077Z,96066.19
2022-10-12T06:38:30.747Z,96070.25
2022-10-12T06:40:58.383Z,96077.28
2022-10-12T06:43:26.168Z,96078.88
2022-10-12T06:46:00.156Z,96076.97
2022-10-12T06:48:27.834Z,96080.44
2022-10-12T06:50:55.707Z,96081.72
2022-10-12T06:53:23.691Z,96077.75
2022-10-12T06:55:51.341Z,96077.94
2022-10-12T06:58:19.877Z,96074.75
2022-10-12T07:00:47.548Z,96072.13
2022-10-12T07:03:17.947Z,96073.06
2022-10-12T07:05:45.730Z,96075.97
2022-10-12T07:08:13.447Z,96076.09
2022-10-12T07:10:41.146Z,96065.41
2022-10-12T07:13:09.052Z,96068.44
2022-10-12T07:15:36.715Z,96066.16
2022-10-12T07:18:04.742Z,96064.19
2022-10-12T07:20:33.808Z,96070.56
2022-10-12T07:23:01.490Z,96061.78
2022-10-12T07:25:29.222Z,96073.47
2022-10-12T07:27:56.903Z,96069.22
2022-10-12T07:30:24.652Z,96066.94
2022-10-12T07:32:54.802Z,96061.03
2022-10-12T07:35:22.524Z,96074.91
2022-10-12T07:37:51.578Z,96064.50
2022-10-12T07:40:19.273Z,96071.47
2022-10-12T07:43:11.937Z,96073.38
2022-10-12T07:45:34.632Z,96076.28
2022-10-12T07:48:02.289Z,96078.00
2022-10-12T07:50:29.995Z,96072.75
2022-10-12T07:52:59.099Z,96080.34
2022-10-12T07:55:26.880Z,96077.84
2022-10-12T07:57:54.577Z,96077.50
2022-10-12T08:00:22.373Z,96077.38
2022-10-12T08:02:50.082Z,96083.66
2022-10-12T08:05:21.108Z,96082.25
2022-10-12T08:07:49.037Z,96087.28
2022-10-12T08:10:18.969Z,96085.81
2022-10-12T08:12:51.172Z,96085.88
2022-10-12T08:15:20.102Z,96088.63
2022-10-12T08:17:47.764Z,96082.34
2022-10-12T08:20:15.639Z,96085.59
2022-10-12T08:22:43.356Z,96078.28
2022-10-12T08:25:11.150Z,96089.50
2022-10-12T08:27:40.480Z,96090.13
2022-10-12T08:30:09.474Z,96091.94
2022-10-12T08:32:37.182Z,96087.53
2022-10-12T08:35:05.435Z,96089.94
2022-10-12T08:37:33.109Z,96084.16
2022-10-12T08:40:03.370Z,96096.84
2022-10-12T08:42:42.298Z,96090.06
2022-10-12T08:45:30.607Z,96096.22
2022-10-12T08:48:01.591Z,96100.19
2022-10-12T08:50:33.965Z,96099.59
2022-10-12T08:53:07.740Z,96097.16
2022-10-12T08:55:40.702Z,96094.66
2022-10-12T08:58:16.861Z,96096.78
2022-10-12T09:00:49.944Z,96094.41
2022-10-12T09:03:31.220Z,96102.97
2022-10-12T09:06:08.968Z,96109.38
2022-10-12T09:09:00.587Z,96104.44
2022-10-12T09:11:40.591Z,96106.00
2022-10-12T09:14:11.818Z,96103.69
2022-10-12T09:16:45.176Z,96102.81
2022-10-12T09:19:18.967Z,96107.38
2022-10-12T09:21:49.509Z,96094.34
2022-10-12T09:24:20.103Z,96094.53
2022-10-12T09:26:51.530Z,96104.53
2022-10-12T09:29:31.105Z,96101.34
2022-10-12T09:32:24.946Z,96096.84
2022-10-12T09:34:52.690Z,96095.44
2022-10-12T09:37:22.727Z,96107.41
2022-10-12T09:39:50.979Z,96108.75
2022-10-12T09:42:18.674Z,96102.47
2022-10-12T09:44:51.349Z,96111.19
2022-10-12T09:47:29.779Z,96106.22
2022-10-12T09:49:59.322Z,96102.47
2022-10-12T09:52:30.886Z,96104.25
2022-10-12T09:55:03.815Z,96094.47
2022-10-12T09:57:35.210Z,96093.31
2022-10-12T10:00:06.421Z,96094.94
2022-10-12T10:02:49.427Z,96094.94
2022-10-12T10:05:26.070Z,96100.16
2022-10-12T10:07:54.403Z,96089.44
2022-10-12T10:10:29.662Z,96091.44
2022-10-12T10:13:01.274Z,96086.19
2022-10-12T10:15:32.667Z,96092.25
2022-10-12T10:18:03.961Z,96081.50
2022-10-12T10:20:34.218Z,96081.28
2022-10-12T10:23:04.704Z,96084.38
2022-10-12T10:25:33.240Z,96078.88
2022-10-12T10:28:21.439Z,96074.88
2022-10-12T10:30:57.852Z,96076.50
2022-10-12T10:33:27.468Z,96072.44
2022-10-12T10:36:05.157Z,96072.75
2022-10-12T10:38:46.014Z,96072.84
2022-10-12T10:41:18.027Z,96067.22
2022-10-12T10:43:48.302Z,96072.38
2022-10-12T10:46:23.490Z,96064.56
2022-10-12T10:48:56.504Z,96065.75
2022-10-12T10:51:24.180Z,96057.56
2022-10-12T10:53:52.502Z,96051.09
2022-10-12T10:56:24.388Z,96058.19
2022-10-12T10:58:56.320Z,96054.31
2022-10-12T11:01:32.420Z,96055.19
2022-10-12T11:04:04.435Z,96054.13
2022-10-12T11:06:39.128Z,96050.41
2022-10-12T11:09:12.007Z,96043.03
2022-10-12T11:11:41.505Z,96044.09
2022-10-12T11:14:16.078Z,96041.41
2022-10-12T11:16:49.782Z,96042.09
2022-10-12T11:19:36.622Z,96039.03
2022-10-12T11:22:07.533Z,96035.78
2022-10-12T11:24:42.992Z,96034.66
2022-10-12T11:27:16.620Z,96029.47
2022-10-12T11:29:44.631Z,96021.25
2022-10-12T11:32:26.915Z,96018.16
2022-10-12T11:34:59.269Z,96025.22
2022-10-12T11:37:34.016Z,96019.06
2022-10-12T11:40:03.990Z,96013.75
2022-10-12T11:42:43.243Z,96015.31
2022-10-12T11:45:21.804Z,96011.72
2022-10-12T11:47:52.692Z,96015.84
2022-10-12T11:50:30.443Z,96015.56
2022-10-12T11:53:02.155Z,96013.78
2022-10-12T11:55:55.629Z,96015.25
2022-10-12T11:58:42.301Z,96012.03
2022-10-12T12:01:44.502Z,96012.59
2022-10-12T12:04:40.457Z,96008.97
2022-10-12T12:07:47.330Z,96004.66
2022-10-12T12:11:03.659Z,96003.69
2022-10-12T12:13:31.967Z,96015.44
2022-10-12T12:16:36.711Z,96003.19
2022-10-12T12:19:26.633Z,96005.81
2022-10-12T12:24:54.760Z,96010.09
2022-10-12T12:27:29.635Z,96008.34
2022-10-12T12:29:58.744Z,96003.97
2022-10-12T12:32:27.965Z,96009.66
2022-10-12T12:35:00.625Z,96009.91
2022-10-12T12:37:35.591Z,96003.59
2022-10-12T12:40:05.656Z,96011.47
2022-10-12T12:42:35.381Z,96009.22
2022-10-12T12:45:36.312Z,96011.03
2022-10-12T12:50:36.670Z,96015.03
2022-10-12T12:53:09.519Z,96006.03
2022-10-12T12:55:51.058Z,96013.28
2022-10-12T12:58:39.204Z,96009.59
2022-10-12T13:01:25.918Z,96006.97
2022-10-12T13:04:30.178Z,96005.16
2022-10-12T13:07:27.020Z,96010.53
2022-10-12T13:10:25.568Z,96007.91
2022-10-12T13:13:20.514Z,96007.53
2022-10-12T13:16:03.011Z,96009.03
2022-10-12T13:18:50.681Z,96006.47
2022-10-12T13:21:21.370Z,96008.34
2022-10-12T13:23:51.355Z,96000.94
2022-10-12T13:26:24.482Z,96004.66
2022-10-12T13:28:55.190Z,95998.41
2022-10-12T13:31:27.181Z,95994.28
2022-10-12T13:34:02.146Z,95989.16
2022-10-12T13:36:32.779Z,95993.69
2022-10-12T13:39:08.621Z,95989.50
2022-10-12T13:41:36.878Z,95983.69
2022-10-12T13:44:07.978Z,95995.63
2022-10-12T13:46:40.729Z,95988.22
2022-10-12T13:49:16.738Z,95987.22
2022-10-12T13:51:45.836Z,95986.59
2022-10-12T13:54:19.856Z,95982.69
2022-10-12T13:56:51.275Z,95982.69
2022-10-12T13:59:23.383Z,95987.00
2022-10-12T14:01:54.029Z,95987.50
2022-10-12T14:04:21.900Z,95985.25
2022-10-12T14:06:57.518Z,95982.81
2022-10-12T14:09:25.896Z,95975.06
2022-10-12T14:11:55.939Z,95976.69
2022-10-12T14:14:32.226Z,95979.44
2022-10-12T14:17:00.122Z,95977.00
2022-10-12T14:19:37.249Z,95983.31
2022-10-12T14:22:05.311Z,95970.53
2022-10-12T14:24:35.788Z,95971.97
2022-10-12T14:27:06.362Z,95974.47
2022-10-12T14:29:41.365Z,95972.06
2022-10-12T14:32:37.644Z,95969.47
2022-10-12T14:35:12.486Z,95962.84
2022-10-12T14:37:40.657Z,95976.09
2022-10-12T14:40:29.869Z,95969.38
2022-10-12T14:43:04.743Z,95973.69
2022-10-12T14:45:34.140Z,95971.22
2022-10-12T14:48:03.172Z,95975.66
2022-10-12T14:50:32.323Z,95984.03
2022-10-12T14:53:03.757Z,95973.19
2022-10-12T14:55:34.076Z,95980.59
2022-10-12T14:58:01.929Z,95975.63
2022-10-12T15:00:31.911Z,95969.66
2022-10-12T15:03:03.263Z,95975.69
2022-10-12T15:05:33.567Z,95977.75
2022-10-12T15:08:07.436Z,95980.38
2022-10-12T15:10:36.453Z,95979.25
2022-10-12T15:13:04.415Z,95975.63
2022-10-12T15:15:37.249Z,95975.97
2022-10-12T15:18:06.648Z,95980.56
2022-10-12T15:20:35.149Z,95983.50
2022-10-12T15:23:03.720Z,95987.38
2022-10-12T15:25:40.030Z,95984.47
2022-10-12T15:28:07.820Z,95984.25
2022-10-12T15:30:52.115Z,95985.47
2022-10-12T15:33:25.612Z,95988.84
2022-10-12T15:35:53.470Z,95985.09
2022-10-12T15:38:21.168Z,95983.00
2022-10-12T15:40:51.060Z,95985.91
2022-10-12T15:43:18.895Z,95992.13
2022-10-12T15:45:46.789Z,95984.22
2022-10-12T15:48:14.783Z,95983.19
2022-10-12T15:50:46.242Z,95985.72
2022-10-12T15:53:16.930Z,95984.31
2022-10-12T15:55:44.852Z,95985.94
2022-10-12T15:58:12.646Z,95981.97
2022-10-12T16:00:40.621Z,95985.75
2022-10-12T16:03:08.644Z,95995.97
2022-10-12T16:05:38.330Z,95983.81
2022-10-12T16:08:07.949Z,95988.78
2022-10-12T16:10:39.430Z,95989.66
2022-10-12T16:13:09.106Z,95984.06
2022-10-12T16:15:37.348Z,95982.53
2022-10-12T16:18:06.950Z,95986.97
2022-10-12T16:20:37.763Z,95983.03
2022-10-12T16:23:08.479Z,95983.91
2022-10-12T16:25:36.852Z,95981.28
2022-10-12T16:28:05.031Z,95978.53
2022-10-12T16:30:33.306Z,95982.38
2022-10-12T16:33:01.132Z,95978.84
2022-10-12T16:35:29.199Z,95982.16
2022-10-12T16:37:56.956Z,95983.59
2022-10-12T16:40:26.190Z,95985.59
2022-10-12T16:42:54.926Z,95983.22
2022-10-12T16:45:23.165Z,95995.88
2022-10-12T16:47:51.426Z,95994.34
2022-10-12T16:50:19.731Z,95996.25
2022-10-12T16:52:48.164Z,96002.59
2022-10-12T16:55:16.678Z,96002.59
2022-10-12T16:57:45.840Z,96007.94
2022-10-12T17:00:17.242Z,96008.53
2022-10-12T17:02:44.949Z,96013.75
2022-10-12T17:05:14.610Z,96012.72
2022-10-12T17:07:42.289Z,96015.25
2022-10-12T17:10:10.748Z,96011.72
2022-10-12T17:12:38.494Z,96012.59
2022-10-12T17:15:08.772Z,96009.56
2022-10-12T17:17:36.608Z,96001.16
2022-10-12T17:20:04.874Z,96006.09
2022-10-12T17:22:32.654Z,96007.25
2022-10-12T17:25:00.457Z,96012.00
2022-10-12T17:27:32.092Z,96023.19
2022-10-12T17:30:00.454Z,96017.00
2022-10-12T17:32:29.611Z,96022.75
2022-10-12T17:34:57.285Z,96024.13
2022-10-12T17:37:25.034Z,96022.28
2022-10-12T17:39:52.869Z,96022.34
2022-10-12T17:42:23.011Z,96026.22
2022-10-12T17:44:50.872Z,96022.75
2022-10-12T17:47:19.736Z,96025.88
2022-10-12T17:49:49.083Z,96027.94
2022-10-12T17:52:17.217Z,96025.53
2022-10-12T17:54:45.243Z,96021.34
2022-10-12T17:57:13.326Z,96023.44
2022-10-12T17:59:41.175Z,96030.94
2022-10-12T18:02:09.749Z,96022.09
2022-10-12T18:04:37.637Z,96026.59
2022-10-12T18:07:07.368Z,96034.03
2022-10-12T18:09:35.225Z,96032.44
2022-10-12T18:12:03.054Z,96035.53
2022-10-12T18:14:30.770Z,96037.53
2022-10-12T18:16:58.839Z,96036.44
2022-10-12T18:19:26.679Z,96043.25
2022-10-12T18:21:54.364Z,96046.53
2022-10-12T18:24:23.423Z,96040.28
2022-10-12T18:26:51.913Z,96052.03
2022-10-12T18:29:19.822Z,96049.34
2022-10-12T18:31:47.749Z,96055.41
2022-10-12T18:34:15.594Z,96055.47
2022-10-12T18:36:43.338Z,96053.06
2022-10-12T18:39:11.150Z,96052.81
2022-10-12T18:41:40.301Z,96053.13
2022-10-12T18:44:09.130Z,96045.78
2022-10-12T18:46:37.526Z,96048.28
2022-10-12T18:49:08.038Z,96053.97
2022-10-12T18:51:37.780Z,96045.00
2022-10-12T18:54:06.134Z,96050.69
2022-10-12T18:56:36.614Z,96047.72
2022-10-12T18:59:06.018Z,96046.09
2022-10-12T19:01:34.641Z,96043.94
2022-10-12T19:04:03.249Z,96037.13
2022-10-12T19:06:33.214Z,96041.50
2022-10-12T19:09:01.861Z,96053.41
2022-10-12T19:11:31.022Z,96041.44
2022-10-12T19:14:00.584Z,96042.00
2022-10-12T19:16:31.517Z,96042.25
2022-10-12T19:19:01.692Z,96042.53
2022-10-12T19:21:30.081Z,96041.97
2022-10-12T19:23:58.267Z,96040.63
2022-10-12T19:26:28.361Z,96036.78
2022-10-12T19:28:57.453Z,96034.06
2022-10-12T19:31:27.595Z,96037.88
2022-10-12T19:33:58.332Z,96048.13
2022-10-12T19:36:27.653Z,96043.53
2022-10-12T19:38:56.729Z,96045.16
2022-10-12T19:41:24.671Z,96037.59
2022-10-12T19:43:53.225Z,96045.16
2022-10-12T19:46:21.651Z,96040.81
2022-10-12T19:48:50.925Z,96044.59
2022-10-12T19:51:21.384Z,96042.09
2022-10-12T19:53:49.583Z,96044.25
2022-10-12T19:56:20.862Z,96044.75
2022-10-12T19:58:50.435Z,96052.03
2022-10-12T20:01:20.775Z,96050.16
2022-10-12T20:03:50.683Z,96039.03
2022-10-12T20:06:20.954Z,96043.28
2022-10-12T20:08:49.654Z,96043.00
2022-10-12T20:11:21.553Z,96049.75
2022-10-12T20:13:52.371Z,96055.38
2022-10-12T20:16:20.993Z,96054.22
2022-10-12T20:18:49.628Z,96060.41
2022-10-12T20:21:19.526Z,96054.41
2022-10-12T20:23:49.405Z,96061.41
2022-10-12T20:26:19.239Z,96065.97
2022-10-12T20:28:47.481Z,96058.09
2022-10-12T20:31:15.344Z,96057.59
2022-10-12T20:33:43.391Z,96056.47
2022-10-12T20:36:13.009Z,96053.50
2022-10-12T20:38:40.885Z,96058.31
2022-10-12T20:41:12.351Z,96065.00
2022-10-12T20:43:44.131Z,96068.75
2022-10-12T20:46:14.305Z,96065.72
2022-10-12T20:48:42.518Z,96056.81
2022-10-12T20:51:14.165Z,96060.84
2022-10-12T20:53:42.164Z,96058.13
2022-10-12T20:56:11.895Z,96057.53
2022-10-12T20:58:39.718Z,96066.94
2022-10-12T21:01:09.484Z,96068.25
2022-10-12T21:03:37.875Z,96067.91
2022-10-12T21:06:07.283Z,96062.19
2022-10-12T21:08:35.653Z,96061.06
2022-10-12T21:11:03.817Z,96059.44
2022-10-12T21:13:34.163Z,96063.81
2022-10-12T21:16:01.901Z,96065.34
2022-10-12T21:18:34.005Z,96060.41
2022-10-12T21:21:05.035Z,96057.41
2022-10-12T21:23:32.938Z,96052.56
2022-10-12T21:26:00.669Z,96051.50
2022-10-12T21:28:28.488Z,96053.38
2022-10-12T21:30:59.545Z,96045.47
2022-10-12T21:33:28.346Z,96053.00
2022-10-12T21:35:56.053Z,96050.81
2022-10-12T21:38:24.060Z,96050.50
2022-10-12T21:40:52.340Z,96057.75
2022-10-12T21:43:20.144Z,96057.66
2022-10-12T21:45:47.925Z,96056.56
2022-10-12T21:48:16.993Z,96061.66
2022-10-12T21:50:44.789Z,96059.69
2022-10-12T21:53:13.701Z,96061.00
2022-10-12T21:55:41.448Z,96045.94
2022-10-12T21:58:09.149Z,96052.66
2022-10-12T22:00:36.928Z,96051.28
2022-10-12T22:03:04.786Z,96054.81
2022-10-12T22:05:39.775Z,96042.94
2022-10-12T22:08:07.830Z,96044.50
2022-10-12T22:10:36.316Z,96050.69
2022-10-12T22:13:04.084Z,96052.81
2022-10-12T22:15:31.793Z,96047.59
2022-10-12T22:18:00.627Z,96047.84
2022-10-12T22:20:28.332Z,96040.38
2022-10-12T22:22:57.551Z,96050.84
2022-10-12T22:25:25.227Z,96047.34
2022-10-12T22:27:52.967Z,96040.78
2022-10-12T22:30:20.668Z,96037.75
2022-10-12T22:32:48.653Z,96042.56
2022-10-12T22:35:16.445Z,96033.91
2022-10-12T22:37:44.128Z,96034.72
2022-10-12T22:40:13.783Z,96040.59
2022-10-12T22:42:41.527Z,96034.22
2022-10-12T22:45:10.367Z,96040.44
2022-10-12T22:47:38.048Z,96039.22
2022-10-12T22:50:06.440Z,96043.56
2022-10-12T22:52:34.504Z,96042.41
2022-10-12T22:55:02.349Z,96047.78
2022-10-12T22:57:32.298Z,96049.31
2022-10-12T23:05:10.673Z,96037.66
2022-10-12T23:07:38.378Z,96032.53
2022-10-12T23:10:06.849Z,96024.13
2022-10-12T23:12:34.547Z,96026.31
2022-10-12T23:15:02.262Z,96029.09
2022-10-12T23:17:29.924Z,96030.47
2022-10-12T23:19:57.686Z,96027.53
2022-10-12T23:22:26.773Z,96032.59
2022-10-12T23:24:54.553Z,96036.19
2022-10-12T23:27:22.446Z,96035.63
2022-10-12T23:29:50.462Z,96035.72
2022-10-12T23:32:18.710Z,96040.19
2022-10-12T23:34:46.677Z,96037.00
2022-10-12T23:37:14.362Z,96037.44
2022-10-12T23:39:43.416Z,96031.94
2022-10-12T23:42:11.122Z,96019.03
2022-10-12T23:44:38.794Z,96023.13
2022-10-12T23:47:06.582Z,96021.97
2022-10-12T23:49:34.233Z,96009.84
2022-10-12T23:52:01.956Z,96023.63
2022-10-12T23:54:29.651Z,96013.41
2022-10-12T23:56:58.676Z,96016.59
2022-10-12T23:59:26.479Z,96012.53
